KSBP

San Luis County Regional Airport

San Luis Obispo, California, USA
METAR KSBP 210456Z AUTO 33006KT 10SM BKN013 15/13 A2996 RMK AO2 SLP143 T01500128 TSNO
Observed Flight Rules
Aug-21 @ 04:56 UTC (9 hours ago) Marginal Visual Flight Rules
Wind Visibility Clouds
330° at 6 knots 10 miles
  • Broken at 1,300' AGL
Temperatures Readings
Current 15°C / 59°F
Dewpoint 13°C / 55°F
Humidity 88%
Altimeter 29.96" Hg
Pressure 1014.3 hPa
Elevation 59
METAR KSBP 210456Z AUTO 33006KT 10SM BKN013 15/13 A2996 RMK AO2 SLP143 T01500128 TSNO
Observed Flight Rules
Aug-21 @ 04:56 UTC
(9 hours ago)
MVFR
Wind Visibility
330° at 6 knots 10 miles
Clouds
  • Broken at 1,300' AGL
Temperature Dewpoint
15°C / 59°F 13°C / 55°F
Humidity Altimeter Pressure
88% 29.96" Hg 1014.3 hPa